Time;durP1;ratioP1;P1;durP2;ratioP2;P2;SDS_P1;SDS_P2;PMS_P1;PMS_P2;Temp;Humidity;BMP_temperature;BMP_pressure;BME280_temperature;BME280_humidity;BME280_pressure;Samples;Min_cycle;Max_cycle;Signal;HPM_P1;HPM_P2
2023/09/15 03:36:51;;;;;;;13.90;12.60;;;;;;;21.66;100.00;99590.42;101603;1290;602470;-63
2023/09/15 03:39:22;;;;;;;15.30;13.80;;;;;;;22.22;100.00;99596.10;103905;1277;62386;-62
2023/09/15 03:41:52;;;;;;;15.10;13.70;;;;;;;22.15;100.00;99602.42;103430;1282;60164;-63
2023/09/15 03:44:22;;;;;;;15.80;14.20;;;;;;;22.22;100.00;99600.72;103571;1267;72042;-62
2023/09/15 03:46:49;;;;;;;16.00;14.10;;;;;;;22.23;100.00;99610.42;103378;1288;67931;-63
2023/09/15 03:49:18;;;;;;;15.80;14.20;;;;;;;22.13;100.00;99616.91;103187;1286;382662;-64
2023/09/15 03:51:45;;;;;;;;;;;;;;;22.07;100.00;99619.92;103974;1266;61441;-62
2023/09/15 03:54:13;;;;;;;15.10;13.60;;;;;;;22.04;100.00;99618.45;103882;1276;59377;-62
2023/09/15 03:56:41;;;;;;;15.00;13.70;;;;;;;22.09;100.00;99627.06;103945;1285;72883;-63
2023/09/15 03:59:12;;;;;;;16.50;13.90;;;;;;;22.06;100.00;99624.98;104191;1264;69275;-63
2023/09/15 04:01:40;;;;;;;16.20;14.50;;;;;;;22.05;100.00;99626.39;104264;1256;72875;-64
2023/09/15 04:04:08;;;;;;;;;;;;;;;21.99;100.00;99627.60;104253;1260;61397;-63
2023/09/15 04:06:36;;;;;;;15.00;13.50;;;;;;;21.92;100.00;99625.54;104287;1254;59733;-62
2023/09/15 04:09:10;;;;;;;15.80;14.40;;;;;;;21.88;100.00;99628.58;104339;1257;73090;-63
2023/09/15 04:11:39;;;;;;;20.10;17.50;;;;;;;21.90;100.00;99632.55;104249;1270;69278;-64
2023/09/15 04:14:07;;;;;;;19.50;16.90;;;;;;;21.88;100.00;99634.89;104139;1260;72434;-63
2023/09/15 04:16:35;;;;;;;;;;;;;;;21.84;100.00;99635.77;104226;1263;61462;-64
2023/09/15 04:19:04;;;;;;;20.70;17.90;;;;;;;21.74;100.00;99639.17;104290;1258;60359;-64
2023/09/15 04:21:33;;;;;;;21.70;18.70;;;;;;;21.68;100.00;99641.83;104175;1263;72879;-64
2023/09/15 04:24:02;;;;;;;20.40;18.10;;;;;;;21.82;100.00;99645.41;104365;1277;69394;-64
2023/09/15 04:26:30;;;;;;;21.00;18.70;;;;;;;21.86;100.00;99651.70;104185;1258;72526;-64
2023/09/15 04:29:00;;;;;;;21.20;19.10;;;;;;;21.87;100.00;99654.96;104319;1270;61776;-64
2023/09/15 04:31:28;;;;;;;21.90;19.40;;;;;;;21.83;100.00;99654.43;104283;1257;59826;-64
2023/09/15 04:33:56;;;;;;;20.70;18.50;;;;;;;21.82;100.00;99657.33;104327;1264;73017;-64
2023/09/15 04:36:24;;;;;;;22.40;20.00;;;;;;;21.83;100.00;99655.25;104313;1259;69751;-65
2023/09/15 04:38:52;;;;;;;20.50;18.40;;;;;;;21.96;100.00;99656.05;104351;1258;72903;-65
2023/09/15 04:41:20;;;;;;;21.60;19.40;;;;;;;21.98;100.00;99658.23;104477;1257;61868;-65
2023/09/15 04:43:51;;;;;;;21.50;19.40;;;;;;;21.98;100.00;99657.15;104578;1256;59710;-63
2023/09/15 04:46:22;;;;;;;23.30;20.20;;;;;;;21.98;100.00;99656.26;104432;1251;72810;-65
2023/09/15 04:48:50;;;;;;;22.20;20.00;;;;;;;21.93;100.00;99659.73;104451;1257;69125;-64
2023/09/15 04:51:20;;;;;;;21.60;19.30;;;;;;;21.89;100.00;99656.16;104268;1257;72370;-63
2023/09/15 04:53:48;;;;;;;22.20;20.10;;;;;;;21.92;100.00;99653.23;104600;1254;61498;-62
2023/09/15 04:56:18;;;;;;;23.50;21.10;;;;;;;21.95;100.00;99655.41;104448;1257;61117;-61
2023/09/15 04:58:48;;;;;;;;;;;;;;;22.09;100.00;99656.89;104323;1258;72721;-59
2023/09/15 05:01:17;;;;;;;22.30;20.00;;;;;;;22.11;100.00;99652.60;104332;1257;68051;-58
2023/09/15 05:03:46;;;;;;;22.60;20.30;;;;;;;22.13;100.00;99655.83;106269;1253;72345;-59
2023/09/15 05:06:14;;;;;;;23.00;20.20;;;;;;;22.13;100.00;99658.67;104330;1254;60800;-60
2023/09/15 05:08:43;;;;;;;22.70;20.20;;;;;;;22.08;100.00;99659.79;104593;1253;59872;-61
2023/09/15 05:11:11;;;;;;;21.40;19.30;;;;;;;22.07;100.00;99663.16;105777;1251;72821;-60
2023/09/15 05:13:39;;;;;;;22.20;20.00;;;;;;;22.11;100.00;99667.55;104251;1257;69728;-60
2023/09/15 05:16:07;;;;;;;21.50;19.30;;;;;;;22.28;100.00;99672.89;104222;1258;72205;-60
2023/09/15 05:18:36;;;;;;;22.00;19.80;;;;;;;22.35;100.00;99672.20;104459;1254;61383;-58
2023/09/15 05:21:03;;;;;;;23.00;20.70;;;;;;;22.36;100.00;99673.55;104280;1257;59800;-58
2023/09/15 05:23:31;;;;;;;21.60;19.30;;;;;;;22.33;100.00;99670.47;104307;1254;72875;-58
2023/09/15 05:25:59;;;;;;;22.50;20.10;;;;;;;22.35;100.00;99674.38;104307;1257;69162;-58
2023/09/15 05:28:27;;;;;;;21.90;19.00;;;;;;;22.35;100.00;99673.30;104232;1274;72958;-58
2023/09/15 05:31:01;;;;;;;;;;;;;;;22.38;100.00;99675.57;104279;1257;61529;-58
2023/09/15 05:33:31;;;;;;;21.00;18.90;;;;;;;22.49;100.00;99679.50;104229;1256;59674;-58
2023/09/15 05:35:58;;;;;;;21.40;19.30;;;;;;;22.76;100.00;99685.20;104318;1267;72788;-58
2023/09/15 05:38:26;;;;;;;20.70;18.70;;;;;;;22.71;100.00;99687.33;104243;1276;69032;-58
2023/09/15 05:40:55;;;;;;;20.70;18.70;;;;;;;22.53;100.00;99685.36;104319;1260;72352;-58
2023/09/15 05:43:23;;;;;;;20.60;18.60;;;;;;;22.53;100.00;99689.33;104250;1256;62380;-58
2023/09/15 05:45:51;;;;;;;20.00;18.20;;;;;;;22.57;100.00;99687.75;104277;1256;60101;-57
2023/09/15 05:48:22;;;;;;;20.20;18.20;;;;;;;22.61;100.00;99692.91;104472;1262;72853;-58
2023/09/15 05:50:50;;;;;;;20.30;17.90;;;;;;;22.63;100.00;99693.26;104280;1264;69577;-58
2023/09/15 05:53:19;;;;;;;21.40;19.30;;;;;;;22.70;100.00;99693.67;104328;1255;72504;-60
2023/09/15 05:55:46;;;;;;;19.90;17.90;;;;;;;22.74;100.00;99692.23;104265;1258;62339;-60
2023/09/15 05:58:16;;;;;;;18.90;17.20;;;;;;;22.75;100.00;99696.23;104271;1254;59753;-60
2023/09/15 06:00:44;;;;;;;;;;;;;;;22.74;100.00;99698.13;104320;1276;72790;-60
2023/09/15 06:03:14;;;;;;;19.10;16.90;;;;;;;22.81;100.00;99696.63;104274;1273;69328;-57
2023/09/15 06:05:42;;;;;;;19.70;17.90;;;;;;;22.91;100.00;99698.48;104318;1258;72898;-57
2023/09/15 06:08:11;;;;;;;18.80;17.00;;;;;;;22.94;100.00;99699.11;104274;1269;61401;-57
2023/09/15 06:10:40;;;;;;;;;;;;;;;22.95;100.00;99701.66;104428;1255;59646;-59
2023/09/15 06:13:08;;;;;;;17.20;15.60;;;;;;;22.99;100.00;99704.72;104336;1276;72926;-59
2023/09/15 06:15:38;;;;;;;18.10;16.40;;;;;;;23.01;100.00;99704.88;104458;1259;69543;-59
2023/09/15 06:18:06;;;;;;;17.60;15.80;;;;;;;23.07;100.00;99703.64;104331;1276;73370;-59
2023/09/15 06:20:34;;;;;;;;;;;;;;;23.17;100.00;99709.00;104601;1253;61514;-59
2023/09/15 06:23:04;;;;;;;;;;;;;;;23.30;100.00;99708.81;104356;1255;60121;-60
2023/09/15 06:25:32;;;;;;;15.80;14.20;;;;;;;23.35;100.00;99712.11;104373;1253;73291;-61
2023/09/15 06:28:00;;;;;;;;;;;;;;;23.33;100.00;99709.91;104250;1254;69125;-60
2023/09/15 06:30:51;;;;;;;16.30;14.60;;;;;;;23.35;100.00;99711.70;104384;1254;72533;-60
2023/09/15 06:33:19;;;;;;;21.90;16.90;;;;;;;23.40;100.00;99717.38;104293;1256;61377;-60
2023/09/15 06:35:49;;;;;;;16.90;15.30;;;;;;;23.49;100.00;99716.67;104346;1260;59762;-60
2023/09/15 06:38:17;;;;;;;17.80;15.90;;;;;;;23.48;100.00;99717.27;104321;1258;73268;-60
2023/09/15 06:40:45;;;;;;;16.70;15.10;;;;;;;23.45;100.00;99724.56;104004;1266;69724;-61
2023/09/15 06:43:12;;;;;;;17.10;15.30;;;;;;;23.43;100.00;99729.75;104398;1257;72468;-61
2023/09/15 06:45:40;;;;;;;17.70;15.90;;;;;;;23.47;100.00;99733.85;104301;1276;61902;-61
2023/09/15 06:48:09;;;;;;;17.70;16.00;;;;;;;23.52;100.00;99735.81;104249;1256;60325;-61
2023/09/15 06:50:37;;;;;;;17.10;15.60;;;;;;;23.47;100.00;99742.05;104331;1267;72071;-60
2023/09/15 06:53:06;;;;;;;17.40;15.70;;;;;;;23.41;100.00;99745.19;104380;1276;69843;-60
2023/09/15 06:55:34;;;;;;;17.40;15.80;;;;;;;23.38;100.00;99745.11;104320;1276;72459;-60
2023/09/15 06:58:02;;;;;;;;;;;;;;;23.29;100.00;99748.78;104346;1277;62048;-60
2023/09/15 07:00:30;;;;;;;16.30;14.60;;;;;;;23.30;100.00;99752.20;104361;1254;59814;-61
2023/09/15 07:02:58;;;;;;;14.90;13.70;;;;;;;23.27;100.00;99751.47;104343;1277;72872;-61
2023/09/15 07:05:25;;;;;;;;;;;;;;;23.29;100.00;99755.72;104388;1259;70151;-61
2023/09/15 07:07:54;;;;;;;15.70;13.80;;;;;;;23.34;100.00;99759.58;104894;1254;72431;-61
2023/09/15 07:10:22;;;;;;;;;;;;;;;23.35;100.00;99757.86;104187;1260;61743;-60
2023/09/15 07:12:50;;;;;;;15.80;14.40;;;;;;;23.34;100.00;99760.83;104303;1256;59830;-60
2023/09/15 07:15:18;;;;;;;14.70;13.50;;;;;;;23.35;100.00;99767.88;104285;1254;72849;-60
2023/09/15 07:17:46;;;;;;;14.30;13.00;;;;;;;23.38;100.00;99771.57;104255;1254;69759;-60
2023/09/15 07:20:13;;;;;;;;;;;;;;;23.39;100.00;99769.17;104305;1277;72248;-60
2023/09/15 07:22:43;;;;;;;13.40;12.20;;;;;;;23.51;100.00;99765.13;104253;1257;61422;-60
2023/09/15 07:25:11;;;;;;;13.80;12.50;;;;;;;23.54;100.00;99766.11;104428;1256;60096;-60
2023/09/15 07:27:39;;;;;;;13.10;12.00;;;;;;;23.52;100.00;99765.38;104254;1267;73272;-60
2023/09/15 07:30:14;;;;;;;13.30;11.90;;;;;;;23.51;100.00;99759.53;104344;1277;69125;-59
2023/09/15 07:32:42;;;;;;;12.80;11.60;;;;;;;23.55;100.00;99763.64;104308;1258;72417;-60
2023/09/15 07:35:12;;;;;;;13.20;12.00;;;;;;;23.59;100.00;99766.31;104320;1255;61879;-61
2023/09/15 07:37:43;;;;;;;12.50;11.40;;;;;;;23.58;100.00;99766.94;104333;1254;59701;-61
2023/09/15 07:40:11;;;;;;;12.20;11.20;;;;;;;23.60;100.00;99765.71;104380;1275;72801;-61
2023/09/15 07:42:40;;;;;;;12.20;11.10;;;;;;;23.59;100.00;99770.58;104341;1257;69608;-61
2023/09/15 07:45:08;;;;;;;13.70;12.40;;;;;;;23.50;100.00;99775.95;104340;1253;72456;-61
2023/09/15 07:47:36;;;;;;;11.90;10.70;;;;;;;23.44;100.00;99778.29;104323;1257;61624;-61
2023/09/15 07:50:04;;;;;;;12.60;11.40;;;;;;;23.34;100.00;99784.06;104292;1254;60559;-62
2023/09/15 07:52:34;;;;;;;13.10;11.60;;;;;;;23.34;100.00;99787.64;104348;1275;74498;-61
2023/09/15 07:55:02;;;;;;;12.70;11.40;;;;;;;23.38;100.00;99791.02;104303;1257;69570;-61
2023/09/15 07:57:32;;;;;;;12.60;10.80;;;;;;;23.40;100.00;99793.17;104370;1257;72443;-61
2023/09/15 08:00:00;;;;;;;12.50;11.50;;;;;;;23.40;100.00;99796.08;104312;1255;61408;-61
2023/09/15 08:02:39;;;;;;;12.50;11.40;;;;;;;23.40;100.00;99794.30;104255;1259;59412;-61
2023/09/15 08:05:07;;;;;;;12.70;11.60;;;;;;;23.43;100.00;99799.52;104315;1276;74571;-61
2023/09/15 08:07:35;;;;;;;11.80;10.60;;;;;;;23.47;100.00;99802.73;104332;1257;69595;-62
2023/09/15 08:10:04;;;;;;;12.00;11.00;;;;;;;23.48;100.00;99803.00;104409;1275;73158;-61
2023/09/15 08:12:32;;;;;;;11.50;10.40;;;;;;;23.49;100.00;99806.83;106373;1253;60541;-61
2023/09/15 08:15:00;;;;;;;12.60;11.20;;;;;;;23.47;100.00;99807.31;104297;1252;60526;-61
2023/09/15 08:17:27;;;;;;;11.30;10.30;;;;;;;23.55;100.00;99813.98;104271;1270;73682;-60
2023/09/15 08:20:00;;;;;;;12.70;11.40;;;;;;;23.59;100.00;99816.63;104253;1275;68342;-61
2023/09/15 08:22:30;;;;;;;12.40;11.30;;;;;;;23.57;100.00;99812.88;104272;1254;72385;-60
2023/09/15 08:25:01;;;;;;;11.60;10.20;;;;;;;23.50;100.00;99808.11;104363;1254;61369;-60
2023/09/15 08:27:29;;;;;;;11.20;10.30;;;;;;;23.44;100.00;99807.98;104368;1253;60521;-60
2023/09/15 08:29:56;;;;;;;;;;;;;;;23.47;100.00;99810.39;104296;1259;72683;-61
2023/09/15 08:32:24;;;;;;;;;;;;;;;23.52;100.00;99809.04;104348;1276;69509;-60
2023/09/15 08:34:53;;;;;;;11.60;10.50;;;;;;;23.52;100.00;99810.77;104310;1276;73101;-59
2023/09/15 08:37:21;;;;;;;12.30;11.10;;;;;;;23.57;100.00;99811.23;104250;1276;61295;-59
2023/09/15 08:39:49;;;;;;;;;;;;;;;23.60;100.00;99811.13;108398;1252;59094;-61
2023/09/15 08:42:35;;;;;;;;;;;;;;;23.59;100.00;99816.64;108504;1253;72821;-61
2023/09/15 08:45:05;;;;;;;11.90;10.70;;;;;;;23.62;100.00;99819.70;108460;1252;69245;-61
2023/09/15 08:47:35;;;;;;;11.60;10.50;;;;;;;23.62;100.00;99825.27;108305;1252;73010;-61
2023/09/15 08:50:03;;;;;;;13.20;11.80;;;;;;;23.62;100.00;99831.36;108144;1254;61382;-61
2023/09/15 08:52:33;;;;;;;14.30;10.90;;;;;;;23.55;100.00;99835.40;108390;1253;59971;-61
2023/09/15 08:55:03;;;;;;;12.40;11.10;;;;;;;23.58;100.00;99838.77;108348;1252;74274;-62
2023/09/15 08:57:31;;;;;;;12.10;11.00;;;;;;;23.64;100.00;99837.40;108458;1252;69505;-61
2023/09/15 08:59:59;;;;;;;11.50;10.40;;;;;;;23.68;100.00;99845.45;108280;1254;72449;-61
2023/09/15 09:02:29;;;;;;;12.50;11.30;;;;;;;23.68;100.00;99842.90;108344;1253;61420;-64
2023/09/15 09:04:57;;;;;;;14.20;11.40;;;;;;;23.67;100.00;99846.77;108427;1252;60049;-61
2023/09/15 09:07:24;;;;;;;12.60;11.40;;;;;;;23.68;100.00;99844.52;108453;1253;73777;-61
2023/09/15 09:09:55;;;;;;;13.20;11.90;;;;;;;23.73;100.00;99844.88;108252;1252;69739;-61
2023/09/15 09:12:23;;;;;;;13.30;12.00;;;;;;;23.75;100.00;99849.16;108107;1253;72874;-60
2023/09/15 09:14:55;;;;;;;12.60;11.30;;;;;;;23.81;100.00;99847.84;108396;1253;61725;-60
2023/09/15 09:17:22;;;;;;;12.30;11.00;;;;;;;23.85;100.00;99849.08;108446;1252;59785;-60
2023/09/15 09:19:53;;;;;;;11.90;10.80;;;;;;;23.83;100.00;99848.15;108387;1254;73638;-60
2023/09/15 09:22:22;;;;;;;11.80;10.30;;;;;;;23.86;100.00;99854.52;108585;1252;69420;-62
2023/09/15 09:24:56;;;;;;;11.30;9.90;;;;;;;23.95;100.00;99850.48;108456;1253;73369;-61
2023/09/15 09:27:34;;;;;;;13.50;10.20;;;;;;;24.05;100.00;99850.56;108425;1253;61563;-60
2023/09/15 09:30:03;;;;;;;9.90;9.00;;;;;;;24.10;100.00;99853.11;108403;1252;59733;-60
2023/09/15 09:32:31;;;;;;;10.70;9.20;;;;;;;24.23;100.00;99851.87;108460;1252;73574;-62
2023/09/15 09:34:58;;;;;;;;;;;;;;;24.34;100.00;99849.79;108407;1252;70410;-61
2023/09/15 09:37:26;;;;;;;;;;;;;;;24.35;100.00;99854.26;108391;1252;72577;-60
2023/09/15 09:39:54;;;;;;;8.80;8.00;;;;;;;24.34;100.00;99851.16;108443;1254;61551;-60
2023/09/15 09:42:24;;;;;;;8.80;8.10;;;;;;;24.36;100.00;99849.88;108417;1253;59967;-62
2023/09/15 09:44:53;;;;;;;8.20;7.40;;;;;;;24.37;100.00;99852.10;108318;1252;74252;-60
2023/09/15 09:47:21;;;;;;;8.70;7.90;;;;;;;24.41;100.00;99854.05;108408;1252;70376;-60
2023/09/15 09:49:50;;;;;;;8.80;7.90;;;;;;;24.46;100.00;99856.11;108184;1252;73149;-61
2023/09/15 09:52:18;;;;;;;10.60;7.40;;;;;;;24.46;100.00;99856.52;108383;1253;62485;-61
2023/09/15 09:54:49;;;;;;;;;;;;;;;24.39;100.00;99859.32;108445;1253;59717;-60
2023/09/15 09:57:17;;;;;;;8.20;7.60;;;;;;;24.37;100.00;99860.50;108427;1252;73835;-59
2023/09/15 09:59:45;;;;;;;7.70;7.10;;;;;;;24.42;100.00;99862.23;107955;1254;70418;-61
2023/09/15 10:02:12;;;;;;;;;;;;;;;24.51;100.00;99864.95;108453;1253;71258;-60
2023/09/15 10:04:40;;;;;;;7.00;6.40;;;;;;;24.55;100.00;99863.86;108420;1253;61563;-61
2023/09/15 10:07:10;;;;;;;7.70;7.00;;;;;;;24.42;100.00;99867.91;108406;1253;60080;-66
2023/09/15 10:09:40;;;;;;;9.10;7.90;;;;;;;24.33;100.00;99870.16;108233;1252;74030;-61
2023/09/15 10:12:08;;;;;;;;;;;;;;;24.29;100.00;99872.46;108455;1253;68480;-59
2023/09/15 10:14:36;;;;;;;7.90;7.20;;;;;;;24.30;100.00;99878.42;108339;1252;73373;-60
2023/09/15 10:17:04;;;;;;;8.10;6.60;;;;;;;24.32;100.00;99879.35;107931;1253;60710;-61
2023/09/15 10:19:31;;;;;;;;;;;;;;;24.33;100.00;99879.90;108425;1252;59947;-61
2023/09/15 10:22:01;;;;;;;6.60;6.10;;;;;;;24.34;100.00;99881.06;108388;1256;73651;-60
2023/09/15 10:24:31;;;;;;;;;;;;;;;24.33;100.00;99880.98;108191;1252;69455;-60
2023/09/15 10:26:59;;;;;;;7.30;6.30;;;;;;;24.33;100.00;99885.67;108206;1253;72471;-60
2023/09/15 10:29:31;;;;;;;6.80;6.10;;;;;;;24.35;100.00;99888.52;108379;1252;61431;-60
2023/09/15 10:32:03;;;;;;;5.60;5.20;;;;;;;24.39;100.00;99888.30;108460;1252;59880;-61
2023/09/15 10:34:32;;;;;;;5.70;5.20;;;;;;;24.38;100.00;99888.60;108449;1252;73727;-60
2023/09/15 10:37:03;;;;;;;4.50;4.10;;;;;;;24.30;100.00;99895.81;108450;1252;69691;-60
2023/09/15 10:39:37;;;;;;;3.90;3.60;;;;;;;24.22;100.00;99896.55;108526;1254;72460;-60
2023/09/15 10:42:08;;;;;;;3.70;3.50;;;;;;;24.19;100.00;99898.32;108400;1253;61978;-61
2023/09/15 10:44:36;;;;;;;4.30;3.90;;;;;;;24.15;100.00;99903.48;108359;1253;59977;-61
2023/09/15 10:47:14;;;;;;;4.50;4.20;;;;;;;24.01;100.00;99902.27;108406;1253;73624;-61
2023/09/15 10:50:04;;;;;;;4.90;3.90;;;;;;;23.94;100.00;99904.98;108373;1254;69321;-60
2023/09/15 10:52:36;;;;;;;4.90;4.50;;;;;;;23.87;100.00;99907.02;108423;1253;72354;-63
2023/09/15 10:55:04;;;;;;;4.60;4.30;;;;;;;23.87;100.00;99908.81;108454;1252;62032;-61
2023/09/15 10:57:35;;;;;;;4.60;4.00;;;;;;;23.84;100.00;99909.70;108459;1253;60641;-59
2023/09/15 11:00:07;;;;;;;4.90;4.30;;;;;;;23.78;100.00;99914.50;108419;1253;73605;-59
2023/09/15 11:02:36;;;;;;;4.50;4.20;;;;;;;23.68;100.00;99914.30;108443;1253;69307;-59
2023/09/15 11:05:05;;;;;;;5.00;4.40;;;;;;;23.64;100.00;99917.61;108407;1253;72229;-59
2023/09/15 11:07:33;;;;;;;4.90;4.50;;;;;;;23.63;100.00;99915.55;108335;1252;61540;-59
2023/09/15 11:10:02;;;;;;;4.70;4.30;;;;;;;23.62;100.00;99915.80;108385;1253;59786;-59
2023/09/15 11:12:32;;;;;;;5.50;5.10;;;;;;;23.53;100.00;99918.92;108425;1254;73654;-60
2023/09/15 11:15:01;;;;;;;4.90;4.60;;;;;;;23.48;100.00;99911.52;108382;1253;70140;-59
2023/09/15 11:17:32;;;;;;;5.00;4.60;;;;;;;23.46;100.00;99906.69;108362;1253;72319;-59
2023/09/15 11:20:05;;;;;;;4.50;4.20;;;;;;;23.35;100.00;99910.81;108407;1252;60426;-59
2023/09/15 11:22:33;;;;;;;4.50;4.20;;;;;;;23.32;100.00;99921.95;108460;1253;59709;-60
2023/09/15 11:25:01;;;;;;;;;;;;;;;23.28;100.00;99919.09;108412;1253;73628;-59
2023/09/15 11:27:47;;;;;;;5.00;4.40;;;;;;;23.41;100.00;99933.86;108454;1253;68229;-59
2023/09/15 11:30:15;;;;;;;5.40;4.90;;;;;;;23.45;100.00;99932.56;108381;1253;72440;-60
2023/09/15 11:32:43;;;;;;;5.30;4.90;;;;;;;23.51;100.00;99937.02;108396;1254;61554;-59
2023/09/15 11:35:12;;;;;;;;;;;;;;;23.57;100.00;99940.27;108420;1252;59835;-59
2023/09/15 11:37:41;;;;;;;4.60;4.30;;;;;;;23.67;100.00;99941.26;108198;1252;73652;-60
2023/09/15 11:40:19;;;;;;;4.80;4.30;;;;;;;23.71;100.00;99940.23;108433;1253;69554;-59
2023/09/15 11:42:53;;;;;;;4.50;4.10;;;;;;;23.80;100.00;99940.46;108362;1254;72071;-59
2023/09/15 11:45:27;;;;;;;4.30;3.90;;;;;;;23.91;100.00;99941.61;108434;1254;61777;-59
2023/09/15 11:47:55;;;;;;;4.20;3.90;;;;;;;23.96;100.00;99943.84;108412;1252;60088;-59
2023/09/15 11:50:23;;;;;;;4.10;3.80;;;;;;;23.96;100.00;99944.69;108400;1253;73707;-59
2023/09/15 11:52:53;;;;;;;;;;;;;;;23.92;100.00;99946.54;108154;1254;70014;-59
2023/09/15 11:55:22;;;;;;;4.00;3.70;;;;;;;23.86;100.00;99945.30;108410;1253;73387;-59
2023/09/15 11:57:53;;;;;;;4.20;3.90;;;;;;;23.83;100.00;99945.20;108404;1253;61744;-60
2023/09/15 12:00:22;;;;;;;4.40;4.10;;;;;;;23.75;100.00;99947.13;108252;1252;58885;-59
2023/09/15 12:02:52;;;;;;;4.60;4.20;;;;;;;23.65;100.00;99947.19;108433;1254;73636;-60
2023/09/15 12:05:22;;;;;;;4.20;3.90;;;;;;;23.64;100.00;99951.36;108262;1253;69348;-59
2023/09/15 12:07:51;;;;;;;3.80;3.50;;;;;;;23.69;100.00;99953.66;108410;1253;75352;-60
2023/09/15 12:10:21;;;;;;;4.40;4.10;;;;;;;23.74;100.00;99951.02;108187;1253;61516;-59
2023/09/15 12:12:49;;;;;;;4.90;4.50;;;;;;;23.81;100.00;99954.67;108395;1253;59824;-59
2023/09/15 12:15:17;;;;;;;4.10;3.80;;;;;;;23.98;100.00;99955.45;108221;1253;73446;-59
2023/09/15 12:17:47;;;;;;;4.80;4.40;;;;;;;24.03;100.00;99958.85;108469;1252;69435;-59
2023/09/15 12:20:20;;;;;;;6.70;5.40;;;;;;;24.01;100.00;99959.46;108415;1253;73332;-58
2023/09/15 12:22:48;;;;;;;5.70;5.30;;;;;;;23.98;100.00;99960.45;108437;1253;62355;-60
2023/09/15 12:25:16;;;;;;;;;;;;;;;23.95;100.00;99960.41;108388;1251;59131;-59
2023/09/15 12:27:47;;;;;;;5.60;4.70;;;;;;;23.87;100.00;99965.80;108449;1253;74459;-59
2023/09/15 12:30:15;;;;;;;;;;;;;;;23.79;100.00;99970.28;108444;1252;70300;-59
2023/09/15 12:32:44;;;;;;;6.30;5.80;;;;;;;23.66;100.00;99973.55;108432;1253;72730;-59
2023/09/15 12:35:13;;;;;;;6.30;5.80;;;;;;;23.54;100.00;99979.89;108375;1253;62378;-59
2023/09/15 12:37:43;;;;;;;6.30;5.80;;;;;;;23.46;100.00;99976.52;108555;1253;58624;-59
2023/09/15 12:40:11;;;;;;;5.90;5.40;;;;;;;23.38;100.00;99978.66;108393;1253;74514;-59
2023/09/15 12:42:38;;;;;;;6.50;5.90;;;;;;;23.41;100.00;99980.33;108382;1253;70221;-59
2023/09/15 12:45:06;;;;;;;;;;;;;;;23.41;100.00;99982.30;108563;1252;72444;-60
2023/09/15 12:47:34;;;;;;;5.90;5.40;;;;;;;23.28;100.00;99984.77;108434;1253;61514;-59
2023/09/15 12:50:05;;;;;;;6.10;5.60;;;;;;;23.25;100.00;99982.88;108418;1254;60030;-60
2023/09/15 12:52:33;;;;;;;6.50;5.90;;;;;;;23.18;100.00;99987.58;108415;1252;73928;-59
2023/09/15 12:55:01;;;;;;;5.90;5.30;;;;;;;23.09;100.00;99987.56;108434;1253;69106;-59
2023/09/15 12:57:28;;;;;;;5.90;5.50;;;;;;;23.09;100.00;99988.44;108430;1253;72821;-60
2023/09/15 12:59:56;;;;;;;;;;;;;;;23.09;100.00;99989.66;108435;1254;61509;-60
2023/09/15 13:02:24;;;;;;;5.80;5.30;;;;;;;23.09;100.00;99989.32;108501;1253;60091;-59
2023/09/15 13:04:52;;;;;;;5.90;5.50;;;;;;;23.13;100.00;99990.21;108447;1252;73715;-59
2023/09/15 13:07:20;;;;;;;5.10;4.80;;;;;;;23.10;100.00;99993.02;108423;1254;69576;-59
2023/09/15 13:09:48;;;;;;;5.40;4.90;;;;;;;23.07;100.00;99991.00;108426;1253;72664;-60
2023/09/15 13:12:15;;;;;;;5.50;5.10;;;;;;;23.09;100.00;99991.30;108439;1253;58406;-59
2023/09/15 13:14:43;;;;;;;;;;;;;;;23.11;100.00;99991.27;108579;1254;59988;-59
2023/09/15 13:17:11;;;;;;;6.10;5.60;;;;;;;23.06;100.00;99993.88;108413;1252;74638;-59
2023/09/15 13:19:39;;;;;;;;;;;;;;;23.08;100.00;99993.36;108426;1252;69178;-59
2023/09/15 13:22:07;;;;;;;6.60;5.90;;;;;;;23.06;100.00;99996.76;108489;1253;71882;-59
2023/09/15 13:24:34;;;;;;;;;;;;;;;23.03;100.00;99998.38;108411;1257;61762;-59
2023/09/15 13:27:04;;;;;;;6.50;6.00;;;;;;;23.08;100.00;100000.65;108444;1253;59577;-59
2023/09/15 13:29:35;;;;;;;6.80;6.20;;;;;;;23.07;100.00;100003.91;108473;1253;72985;-59
2023/09/15 13:32:03;;;;;;;6.30;5.70;;;;;;;23.07;100.00;100005.20;108446;1252;70024;-59
2023/09/15 13:34:32;;;;;;;7.00;6.40;;;;;;;23.07;100.00;100004.66;108426;1253;73420;-59
2023/09/15 13:36:59;;;;;;;6.50;6.00;;;;;;;22.99;100.00;100005.70;108403;1254;61611;-59
2023/09/15 13:39:27;;;;;;;10.30;6.70;;;;;;;22.91;100.00;100011.42;108477;1254;59733;-59
2023/09/15 13:41:57;;;;;;;;;;;;;;;22.86;100.00;100008.83;108456;1252;73653;-59
2023/09/15 13:44:25;;;;;;;7.50;6.90;;;;;;;22.80;100.00;100015.27;108491;1252;69255;-59
2023/09/15 13:46:53;;;;;;;6.60;6.00;;;;;;;22.74;100.00;100021.34;108413;1254;72742;-59
2023/09/15 13:49:24;;;;;;;7.00;6.50;;;;;;;22.72;100.00;100023.28;108482;1252;61434;-59
2023/09/15 13:51:52;;;;;;;6.70;6.20;;;;;;;22.65;100.00;100023.05;108417;1253;60063;-59
2023/09/15 13:54:20;;;;;;;;;;;;;;;22.68;100.00;100022.52;108474;1254;73965;-59
2023/09/15 13:56:50;;;;;;;;;;;;;;;22.69;100.00;100025.86;108507;1253;70242;-59
2023/09/15 13:59:19;;;;;;;6.40;5.90;;;;;;;22.67;100.00;100027.71;108433;1254;73363;-60
2023/09/15 14:01:46;;;;;;;7.00;6.40;;;;;;;22.67;100.00;100029.61;108467;1253;61723;-59
2023/09/15 14:04:17;;;;;;;;;;;;;;;22.66;100.00;100030.38;108549;1253;60159;-60
2023/09/15 14:06:47;;;;;;;7.10;6.50;;;;;;;22.66;100.00;100034.02;108354;1251;74042;-59
2023/09/15 14:09:15;;;;;;;7.10;6.40;;;;;;;22.57;100.00;100039.95;108390;1252;69033;-59
2023/09/15 14:11:43;;;;;;;8.10;7.30;;;;;;;22.46;100.00;100046.77;108440;1253;72477;-59
2023/09/15 14:14:16;;;;;;;7.00;6.40;;;;;;;22.46;100.00;100045.35;108388;1252;61508;-59
2023/09/15 14:16:43;;;;;;;7.10;6.50;;;;;;;22.49;100.00;100045.82;108016;1252;59790;-59
2023/09/15 14:19:13;;;;;;;6.90;6.30;;;;;;;22.47;100.00;100044.06;108437;1254;73836;-58
2023/09/15 14:21:44;;;;;;;7.30;6.60;;;;;;;22.46;100.00;100041.60;108542;1252;69684;-59
2023/09/15 14:24:15;;;;;;;7.10;6.50;;;;;;;22.44;100.00;100044.07;108218;1253;73025;-59
2023/09/15 14:26:43;;;;;;;7.60;6.80;;;;;;;22.43;100.00;100045.08;108554;1253;61793;-59
2023/09/15 14:29:13;;;;;;;;;;;;;;;22.44;100.00;100046.84;108461;1254;59725;-58
2023/09/15 14:31:43;;;;;;;6.70;6.00;;;;;;;22.46;100.00;100043.77;108452;1253;74315;-58
2023/09/15 14:34:13;;;;;;;7.10;6.50;;;;;;;22.47;100.00;100050.08;108445;1253;69127;-59
2023/09/15 14:36:41;;;;;;;7.10;6.10;;;;;;;22.47;100.00;100049.05;108398;1254;71487;-59
2023/09/15 14:39:08;;;;;;;6.90;6.20;;;;;;;22.43;100.00;100049.39;108442;1253;62413;-58
2023/09/15 14:41:41;;;;;;;8.50;6.60;;;;;;;22.45;100.00;100052.23;108483;1253;59925;-58
2023/09/15 14:44:16;;;;;;;7.70;7.00;;;;;;;22.48;100.00;100053.27;108409;1252;74298;-59
2023/09/15 14:46:45;;;;;;;7.20;6.20;;;;;;;22.42;100.00;100051.93;108465;1253;70135;-59
2023/09/15 14:49:19;;;;;;;7.70;6.70;;;;;;;22.43;100.00;100051.53;108548;1253;72454;-58
2023/09/15 14:51:46;;;;;;;;;;;;;;;22.42;100.00;100052.01;108436;1253;60499;-58
2023/09/15 14:54:17;;;;;;;;;;;;;;;22.41;100.00;100055.64;108620;1252;59412;-58
2023/09/15 14:56:45;;;;;;;6.10;5.60;;;;;;;22.39;100.00;100057.41;108616;1253;74051;-59
2023/09/15 14:59:15;;;;;;;;;;;;;;;22.35;100.00;100062.23;108482;1251;69376;-59
2023/09/15 15:01:43;;;;;;;6.50;6.00;;;;;;;22.35;100.00;100062.89;108416;1252;72429;-59
2023/09/15 15:04:10;;;;;;;7.30;6.70;;;;;;;22.41;100.00;100065.77;108424;1254;61479;-58